createdAt,value
2019-02-15T00:01:22.155Z,63.50
2019-02-15T00:02:57.321Z,61.40
2019-02-15T00:04:32.481Z,63.70
2019-02-15T00:06:08.777Z,61.60
2019-02-15T00:07:43.958Z,63.70
2019-02-15T00:09:19.126Z,61.70
2019-02-15T00:10:54.281Z,61.90
2019-02-15T00:12:29.794Z,61.90
2019-02-15T00:14:04.947Z,61.40
2019-02-15T00:15:40.103Z,64.20
2019-02-15T00:17:16.919Z,64.50
2019-02-15T00:18:54.000Z,65.30
2019-02-15T00:20:30.804Z,63.10
2019-02-15T00:22:05.972Z,66.00
2019-02-15T00:23:42.104Z,62.50
2019-02-15T00:25:17.261Z,62.50
2019-02-15T00:26:52.429Z,62.50
2019-02-15T00:28:27.583Z,62.50
2019-02-15T00:30:04.512Z,65.00
2019-02-15T00:31:39.677Z,65.10
2019-02-15T00:33:14.851Z,62.50
2019-02-15T00:34:50.014Z,64.50
2019-02-15T00:36:25.180Z,62.10
2019-02-15T00:38:00.343Z,62.00
2019-02-15T00:39:36.479Z,65.10
2019-02-15T00:41:11.646Z,64.70
2019-02-15T00:42:46.825Z,64.90
2019-02-15T00:46:04.427Z,62.10
2019-02-15T00:47:41.257Z,64.40
2019-02-15T00:49:18.058Z,63.00
2019-02-15T00:50:54.860Z,63.20
2019-02-15T00:52:31.674Z,63.90
2019-02-15T00:54:11.388Z,63.30
2019-02-15T00:55:48.186Z,64.40
2019-02-15T00:57:30.835Z,66.20
2019-02-15T00:59:19.906Z,63.70
2019-02-15T01:00:59.431Z,63.80
2019-02-15T01:02:48.792Z,66.10
2019-02-15T01:04:31.365Z,63.90
2019-02-15T01:06:13.753Z,66.50
2019-02-15T01:07:50.840Z,64.00
2019-02-15T01:09:27.644Z,67.20
2019-02-15T01:11:19.612Z,64.10
2019-02-15T01:12:59.365Z,64.10
2019-02-15T01:14:34.522Z,66.20
2019-02-15T01:16:09.688Z,64.30
2019-02-15T01:17:44.859Z,64.40
2019-02-15T01:19:20.014Z,66.20
2019-02-15T01:20:55.533Z,64.40
2019-02-15T01:22:30.710Z,66.50
2019-02-15T01:24:05.873Z,67.20
2019-02-15T01:25:42.667Z,66.00
2019-02-15T01:27:19.538Z,64.70
2019-02-15T01:28:59.004Z,64.70
2019-02-15T01:30:41.830Z,65.60
2019-02-15T01:32:33.624Z,64.90
2019-02-15T01:34:11.494Z,65.00
2019-02-15T01:35:56.990Z,64.90
2019-02-15T01:37:33.810Z,65.30
2019-02-15T01:39:13.868Z,65.50
2019-02-15T01:40:50.679Z,67.20
2019-02-15T01:42:27.487Z,67.50
2019-02-15T01:44:16.007Z,65.80
2019-02-15T01:45:52.820Z,65.80
2019-02-15T01:47:28.064Z,68.80
2019-02-15T01:49:03.228Z,65.90
2019-02-15T01:50:39.497Z,65.90
2019-02-15T01:52:14.657Z,68.40
2019-02-15T01:53:49.831Z,66.00
2019-02-15T01:55:24.983Z,68.00
2019-02-15T01:57:01.128Z,68.20
2019-02-15T01:58:36.305Z,65.90
2019-02-15T02:00:13.749Z,65.90
2019-02-15T02:01:48.917Z,68.30
2019-02-15T02:03:24.078Z,66.10
2019-02-15T02:04:59.233Z,66.10
2019-02-15T02:06:34.398Z,68.40
2019-02-15T02:08:11.506Z,66.40
2019-02-15T02:09:46.672Z,66.40
2019-02-15T02:11:21.840Z,66.20
2019-02-15T02:12:57.009Z,66.40
2019-02-15T02:14:33.239Z,66.60
2019-02-15T02:16:08.694Z,66.60
2019-02-15T02:17:43.868Z,66.50
2019-02-15T02:19:19.033Z,66.60
2019-02-15T02:20:54.485Z,66.70
2019-02-15T02:22:29.642Z,66.70
2019-02-15T02:24:04.817Z,66.60
2019-02-15T02:25:40.056Z,69.60
2019-02-15T02:27:15.236Z,69.40
2019-02-15T02:28:50.757Z,66.60
2019-02-15T02:30:25.927Z,66.70
2019-02-15T02:32:01.109Z,66.10
2019-02-15T02:33:37.353Z,66.70
2019-02-15T02:35:13.621Z,69.20
2019-02-15T02:36:53.591Z,66.70
2019-02-15T02:38:29.110Z,66.70
2019-02-15T02:40:06.204Z,67.80
2019-02-15T02:41:41.372Z,68.60
2019-02-15T02:43:16.541Z,66.80
2019-02-15T02:44:52.017Z,66.90
2019-02-15T02:46:27.119Z,66.80
2019-02-15T02:48:02.295Z,66.90
2019-02-15T02:49:37.446Z,67.60
2019-02-15T02:51:12.606Z,67.10
2019-02-15T02:52:47.761Z,66.90
2019-02-15T02:54:22.941Z,66.80
2019-02-15T02:55:58.099Z,66.90
2019-02-15T02:57:33.248Z,66.80
2019-02-15T02:59:08.413Z,66.80
2019-02-15T03:00:43.589Z,66.90
2019-02-15T03:02:18.806Z,67.40
2019-02-15T03:03:53.934Z,66.90
2019-02-15T03:05:29.117Z,66.90
2019-02-15T03:07:04.719Z,66.90
2019-02-15T03:08:40.478Z,66.70
2019-02-15T03:10:17.007Z,66.60
2019-02-15T03:11:52.168Z,66.80
2019-02-15T03:13:27.345Z,66.90
2019-02-15T03:15:02.582Z,66.90
2019-02-15T03:16:37.817Z,67.00
2019-02-15T03:18:12.992Z,66.90
2019-02-15T03:19:48.186Z,66.90
2019-02-15T03:21:23.328Z,66.90
2019-02-15T03:22:58.485Z,66.80
2019-02-15T03:24:33.658Z,66.70
2019-02-15T03:26:08.809Z,66.70
2019-02-15T03:27:44.282Z,66.80
2019-02-15T03:29:19.444Z,66.80
2019-02-15T03:30:54.620Z,66.70
2019-02-15T03:32:29.778Z,69.90
2019-02-15T03:34:05.017Z,66.80
2019-02-15T03:35:42.570Z,66.60
2019-02-15T03:37:19.371Z,66.80
2019-02-15T03:38:56.181Z,66.60
2019-02-15T03:40:33.958Z,66.70
2019-02-15T03:42:10.998Z,66.70
2019-02-15T03:43:46.163Z,66.70
2019-02-15T03:45:21.340Z,69.00
2019-02-15T03:46:56.505Z,66.70
2019-02-15T03:48:31.687Z,68.90
2019-02-15T03:50:08.886Z,66.60
2019-02-15T03:51:44.039Z,66.60
2019-02-15T03:53:19.190Z,66.50
2019-02-15T03:54:54.359Z,66.50
2019-02-15T03:56:29.512Z,66.40
2019-02-15T03:58:04.675Z,66.00
2019-02-15T03:59:40.976Z,66.50
2019-02-15T04:01:16.151Z,66.50
2019-02-15T04:02:51.571Z,66.50
2019-02-15T04:04:26.733Z,66.50
2019-02-15T04:06:01.902Z,66.50
2019-02-15T04:07:37.066Z,66.50
2019-02-15T04:09:12.242Z,66.60
2019-02-15T04:10:47.410Z,66.60
2019-02-15T04:12:22.599Z,66.10
2019-02-15T04:13:57.740Z,66.60
2019-02-15T04:15:32.905Z,66.90
2019-02-15T04:17:09.041Z,66.80
2019-02-15T04:18:44.214Z,66.70
2019-02-15T04:20:20.436Z,66.50
2019-02-15T04:21:55.595Z,66.90
2019-02-15T04:23:31.021Z,66.90
2019-02-15T04:25:07.681Z,66.90
2019-02-15T04:26:42.830Z,66.90
2019-02-15T04:28:18.065Z,70.80
2019-02-15T04:29:53.228Z,67.10
2019-02-15T04:31:28.385Z,70.10
2019-02-15T04:33:03.549Z,67.20
2019-02-15T04:34:38.726Z,67.20
2019-02-15T04:36:13.892Z,67.20
2019-02-15T04:37:49.043Z,70.70
2019-02-15T04:39:24.206Z,69.50
2019-02-15T04:40:59.358Z,70.10
2019-02-15T04:42:34.516Z,67.50
2019-02-15T04:44:09.721Z,69.90
2019-02-15T04:45:44.879Z,67.40
2019-02-15T04:47:20.158Z,67.40
2019-02-15T04:48:55.332Z,67.50
2019-02-15T04:50:30.484Z,68.10
2019-02-15T04:52:05.926Z,69.80
2019-02-15T04:53:41.754Z,67.60
2019-02-15T04:55:16.908Z,67.30
2019-02-15T04:56:52.061Z,67.70
2019-02-15T04:58:27.220Z,70.40
2019-02-15T05:00:02.377Z,67.80
2019-02-15T05:01:37.605Z,70.30
2019-02-15T05:03:12.765Z,67.90
2019-02-15T05:04:47.959Z,67.80
2019-02-15T05:06:23.342Z,71.00
2019-02-15T05:07:58.513Z,69.60
2019-02-15T05:09:33.683Z,67.90
2019-02-15T05:11:08.856Z,70.00
2019-02-15T05:12:44.269Z,67.90
2019-02-15T05:14:19.447Z,67.90
2019-02-15T05:15:54.598Z,68.00
2019-02-15T05:17:29.767Z,70.90
2019-02-15T05:19:04.908Z,68.00
2019-02-15T05:20:40.089Z,68.00
2019-02-15T05:22:15.302Z,71.40
2019-02-15T05:23:50.807Z,68.00
2019-02-15T05:25:25.966Z,70.30
2019-02-15T05:27:01.384Z,68.10
2019-02-15T05:28:36.578Z,71.40
2019-02-15T05:30:12.138Z,68.10
2019-02-15T05:31:47.308Z,68.00
2019-02-15T05:33:22.484Z,68.10
2019-02-15T05:34:57.649Z,70.90
2019-02-15T05:36:32.799Z,67.80
2019-02-15T05:38:07.964Z,68.20
2019-02-15T05:39:43.131Z,68.20
2019-02-15T05:41:18.284Z,68.30
2019-02-15T05:42:53.458Z,68.20
2019-02-15T05:44:28.647Z,68.30
2019-02-15T05:46:04.122Z,68.30
2019-02-15T05:47:39.292Z,70.50
2019-02-15T05:49:14.786Z,68.40
2019-02-15T05:50:49.963Z,68.40
2019-02-15T05:52:25.131Z,69.70
2019-02-15T05:54:00.313Z,68.50
2019-02-15T05:55:35.742Z,68.50
2019-02-15T05:57:10.917Z,68.60
2019-02-15T05:58:46.079Z,68.70
2019-02-15T06:00:21.261Z,74.50
2019-02-15T06:01:57.388Z,69.20
2019-02-15T06:03:32.907Z,70.70
2019-02-15T06:05:09.462Z,69.20
2019-02-15T06:06:44.576Z,69.10
2019-02-15T06:08:19.740Z,69.00
2019-02-15T06:09:54.903Z,69.70
2019-02-15T06:11:30.069Z,69.00
2019-02-15T06:13:05.249Z,68.80
2019-02-15T06:14:40.406Z,68.80
2019-02-15T06:16:15.887Z,68.80
2019-02-15T06:17:51.055Z,68.90
2019-02-15T06:19:26.214Z,68.80
2019-02-15T06:21:01.384Z,68.80
2019-02-15T06:22:36.827Z,70.60
2019-02-15T06:24:12.793Z,68.80
2019-02-15T06:25:48.314Z,71.30
2019-02-15T06:27:23.454Z,68.80
2019-02-15T06:28:58.614Z,68.90
2019-02-15T06:30:34.096Z,68.80
2019-02-15T06:32:09.278Z,70.90
2019-02-15T06:33:44.462Z,69.00
2019-02-15T06:35:19.640Z,69.00
2019-02-15T06:36:54.796Z,69.00
2019-02-15T06:38:34.775Z,68.10
2019-02-15T06:40:07.519Z,69.10
2019-02-15T06:41:43.650Z,71.90
2019-02-15T06:43:19.627Z,69.00
2019-02-15T06:44:54.814Z,69.30
2019-02-15T06:46:30.314Z,69.30
2019-02-15T06:48:05.477Z,69.50
2019-02-15T06:49:40.639Z,71.60
2019-02-15T06:51:15.831Z,69.60
2019-02-15T06:52:50.993Z,69.80
2019-02-15T06:54:26.149Z,72.90
2019-02-15T06:56:01.312Z,70.00
2019-02-15T06:57:36.470Z,70.30
2019-02-15T06:59:13.284Z,70.50
2019-02-15T07:01:02.180Z,70.80
2019-02-15T07:02:38.985Z,70.90
2019-02-15T07:04:25.395Z,71.10
2019-02-15T07:06:00.568Z,71.30
2019-02-15T07:07:35.712Z,71.30
2019-02-15T07:09:10.872Z,71.30
2019-02-15T07:10:46.039Z,71.10
2019-02-15T07:12:21.192Z,70.90
2019-02-15T07:13:56.392Z,70.70
2019-02-15T07:15:33.800Z,70.50
2019-02-15T07:17:08.348Z,70.40
2019-02-15T07:18:43.522Z,70.10
2019-02-15T07:20:18.684Z,69.60
2019-02-15T07:21:53.837Z,69.30
2019-02-15T07:23:28.999Z,69.90
2019-02-15T07:25:05.396Z,69.00
2019-02-15T07:26:40.583Z,68.70
2019-02-15T07:28:15.971Z,68.60
2019-02-15T07:29:51.124Z,68.30
2019-02-15T07:31:26.286Z,67.60
2019-02-15T07:33:01.440Z,67.30
2019-02-15T07:34:36.631Z,66.90
2019-02-15T07:36:11.765Z,66.60
2019-02-15T07:37:47.391Z,66.00
2019-02-15T07:39:22.563Z,65.90
2019-02-15T07:40:57.738Z,65.60
2019-02-15T07:42:32.899Z,65.80
2019-02-15T07:44:08.059Z,64.20
2019-02-15T07:45:43.275Z,63.90
2019-02-15T07:47:18.382Z,63.60
2019-02-15T07:48:53.549Z,62.30
2019-02-15T07:50:28.727Z,61.90
2019-02-15T07:52:03.887Z,61.40
2019-02-15T07:53:39.057Z,61.00
2019-02-15T07:55:15.352Z,60.60
2019-02-15T07:56:50.538Z,61.60
2019-02-15T07:58:25.715Z,60.10
2019-02-15T08:00:01.051Z,59.90
2019-02-15T08:01:37.131Z,59.30
2019-02-15T08:03:12.308Z,58.80
2019-02-15T08:04:47.485Z,58.30
2019-02-15T08:06:22.680Z,57.80
2019-02-15T08:07:58.185Z,57.50
2019-02-15T08:09:33.362Z,56.90
2019-02-15T08:11:08.546Z,58.90
2019-02-15T08:12:43.727Z,57.80
2019-02-15T08:14:18.927Z,58.30
2019-02-15T08:15:54.094Z,57.60
2019-02-15T08:17:29.275Z,55.90
2019-02-15T08:19:04.458Z,54.50
2019-02-15T08:20:39.638Z,54.10
2019-02-15T08:22:14.812Z,54.30
2019-02-15T08:23:49.992Z,55.30
2019-02-15T08:25:25.171Z,53.60
2019-02-15T08:27:00.356Z,56.60
2019-02-15T08:28:35.532Z,52.50
2019-02-15T08:30:11.841Z,52.80
2019-02-15T08:31:47.026Z,53.50
2019-02-15T08:33:22.200Z,54.80
2019-02-15T08:34:57.365Z,51.90
2019-02-15T08:36:33.515Z,52.40
2019-02-15T08:38:08.687Z,52.80
2019-02-15T08:41:19.667Z,51.00
2019-02-15T08:42:55.998Z,51.20
2019-02-15T08:44:31.290Z,51.30
2019-02-15T08:46:06.471Z,55.00
2019-02-15T08:47:41.823Z,54.70
2019-02-15T08:50:52.205Z,51.30
2019-02-15T08:52:27.386Z,50.70
2019-02-15T08:54:02.561Z,52.90
2019-02-15T08:55:37.737Z,52.20
2019-02-15T08:57:12.916Z,48.60
2019-02-15T08:58:48.388Z,48.40
2019-02-15T09:00:23.564Z,48.30
2019-02-15T09:02:00.399Z,50.40
2019-02-15T09:03:35.567Z,50.30
2019-02-15T09:05:13.582Z,49.10
2019-02-15T09:06:48.772Z,47.40
2019-02-15T09:08:23.952Z,47.20
2019-02-15T09:09:59.129Z,47.00
2019-02-15T09:11:34.311Z,46.80
2019-02-15T09:13:09.477Z,48.00
2019-02-15T09:14:44.651Z,46.60
2019-02-15T09:16:20.408Z,49.20
2019-02-15T09:17:55.579Z,46.50
2019-02-15T09:19:30.757Z,46.40
2019-02-15T09:21:05.944Z,46.10
2019-02-15T09:22:41.116Z,45.90
2019-02-15T09:24:16.291Z,45.90
2019-02-15T09:25:51.456Z,46.00
2019-02-15T09:27:28.281Z,46.00
2019-02-15T09:29:04.926Z,45.40
2019-02-15T09:30:40.094Z,46.60
2019-02-15T09:32:15.275Z,45.60
2019-02-15T09:33:50.585Z,45.10
2019-02-15T09:35:26.803Z,44.70
2019-02-15T09:37:01.983Z,44.60
2019-02-15T09:38:37.167Z,44.10
2019-02-15T09:40:12.336Z,43.70
2019-02-15T09:41:47.540Z,43.60
2019-02-15T09:43:22.724Z,43.80
2019-02-15T09:44:57.893Z,43.60
2019-02-15T09:46:33.067Z,43.70
2019-02-15T09:48:08.242Z,43.50
2019-02-15T09:49:45.198Z,43.50
2019-02-15T09:51:20.730Z,43.10
2019-02-15T09:52:55.910Z,43.30
2019-02-15T09:54:31.096Z,43.00
2019-02-15T09:56:06.276Z,42.30
2019-02-15T09:57:41.454Z,42.00
2019-02-15T09:59:16.635Z,41.60
2019-02-15T10:00:51.816Z,41.60
2019-02-15T10:02:27.224Z,41.60
2019-02-15T10:04:02.662Z,41.40
2019-02-15T10:05:37.823Z,41.20
2019-02-15T10:07:13.020Z,41.00
2019-02-15T10:08:48.194Z,41.00
2019-02-15T10:10:23.370Z,41.30
2019-02-15T10:11:58.550Z,42.10
2019-02-15T10:13:33.723Z,41.30
2019-02-15T10:15:11.132Z,41.00
2019-02-15T10:16:48.057Z,40.80
2019-02-15T10:18:23.186Z,40.90
2019-02-15T10:19:58.642Z,41.00
2019-02-15T10:21:33.828Z,40.70
2019-02-15T10:23:08.998Z,40.80
2019-02-15T10:24:44.162Z,40.90
2019-02-15T10:26:19.341Z,41.00
2019-02-15T10:27:54.523Z,40.80
2019-02-15T10:29:29.712Z,40.50
2019-02-15T10:31:04.900Z,40.20
2019-02-15T10:32:40.085Z,39.40
2019-02-15T10:34:15.523Z,39.90
2019-02-15T10:35:51.268Z,39.70
2019-02-15T10:37:26.449Z,39.70
2019-02-15T10:39:01.634Z,39.80
2019-02-15T10:40:38.482Z,39.80
2019-02-15T10:42:13.659Z,39.90
2019-02-15T10:43:49.167Z,39.90
2019-02-15T10:45:24.340Z,39.40
2019-02-15T10:46:59.531Z,39.40
2019-02-15T10:48:34.691Z,39.50
2019-02-15T10:50:11.485Z,39.20
2019-02-15T10:51:46.681Z,39.00
2019-02-15T10:53:21.866Z,39.00
2019-02-15T10:54:57.041Z,39.20
2019-02-15T10:56:32.212Z,39.30
2019-02-15T10:58:07.400Z,38.90
2019-02-15T10:59:42.570Z,38.40
2019-02-15T11:01:17.741Z,38.40
2019-02-15T11:02:53.185Z,38.30
2019-02-15T11:04:28.359Z,38.20
2019-02-15T11:06:03.542Z,38.50
2019-02-15T11:07:38.730Z,38.40
2019-02-15T11:09:14.866Z,38.10
2019-02-15T11:10:50.374Z,38.10
2019-02-15T11:12:25.560Z,38.10
2019-02-15T11:14:00.740Z,37.50
2019-02-15T11:15:35.915Z,36.90
2019-02-15T11:17:11.098Z,37.40
2019-02-15T11:18:46.276Z,37.80
2019-02-15T11:20:21.765Z,37.60
2019-02-15T11:21:56.963Z,37.20
2019-02-15T11:23:32.133Z,37.40
2019-02-15T11:25:10.318Z,37.10
2019-02-15T11:26:45.495Z,36.90
2019-02-15T11:28:21.796Z,36.90
2019-02-15T11:29:56.969Z,37.10
2019-02-15T11:31:32.145Z,37.00
2019-02-15T11:33:07.319Z,37.10
2019-02-15T11:34:42.502Z,36.60
2019-02-15T11:36:17.684Z,36.50
2019-02-15T11:37:52.875Z,36.50
2019-02-15T11:39:28.050Z,35.90
2019-02-15T11:41:10.909Z,35.40
2019-02-15T11:42:40.278Z,35.90
2019-02-15T11:44:15.456Z,35.30
2019-02-15T11:45:50.628Z,35.70
2019-02-15T11:47:25.828Z,34.90
2019-02-15T11:49:00.993Z,35.60
2019-02-15T11:50:36.168Z,35.90
2019-02-15T11:52:11.354Z,36.10
2019-02-15T11:53:46.529Z,36.10
2019-02-15T11:55:22.197Z,35.70
2019-02-15T11:56:57.366Z,36.20
2019-02-15T11:58:32.545Z,35.70
2019-02-15T12:00:17.831Z,36.20
2019-02-15T12:01:52.627Z,36.10
2019-02-15T12:03:27.812Z,36.10
2019-02-15T12:05:03.319Z,36.00
2019-02-15T12:06:38.489Z,36.00
2019-02-15T12:08:13.667Z,36.00
2019-02-15T12:09:48.969Z,36.10
2019-02-15T12:11:24.169Z,36.00
2019-02-15T12:12:59.349Z,36.00
2019-02-15T12:14:34.523Z,35.90
2019-02-15T12:16:09.698Z,35.90
2019-02-15T12:17:44.888Z,36.20
2019-02-15T12:19:20.349Z,35.90
2019-02-15T12:20:55.510Z,35.60
2019-02-15T12:22:30.702Z,35.30
2019-02-15T12:24:05.879Z,34.60
2019-02-15T12:25:41.057Z,35.10
2019-02-15T12:27:16.569Z,35.10
2019-02-15T12:28:52.430Z,35.10
2019-02-15T12:30:27.610Z,35.20
2019-02-15T12:32:02.790Z,35.20
2019-02-15T12:33:37.980Z,35.30
2019-02-15T12:35:13.159Z,35.40
2019-02-15T12:36:48.426Z,35.50
2019-02-15T12:38:23.587Z,35.30
2019-02-15T12:39:59.059Z,35.40
2019-02-15T12:41:34.596Z,35.60
2019-02-15T12:43:11.009Z,35.70
2019-02-15T12:44:46.186Z,35.40
2019-02-15T12:46:21.366Z,35.50
2019-02-15T12:47:56.786Z,35.50
2019-02-15T12:49:31.958Z,35.40
2019-02-15T12:51:07.132Z,34.70
2019-02-15T12:52:42.306Z,35.00
2019-02-15T12:54:17.480Z,35.10
2019-02-15T12:55:53.603Z,35.30
2019-02-15T12:57:28.779Z,35.00
2019-02-15T12:59:03.962Z,35.40
2019-02-15T13:00:39.128Z,35.50
2019-02-15T13:02:14.305Z,34.70
2019-02-15T13:03:49.740Z,34.90
2019-02-15T13:05:24.923Z,34.90
2019-02-15T13:07:00.096Z,34.10
2019-02-15T13:08:35.276Z,34.50
2019-02-15T13:10:19.057Z,34.10
2019-02-15T13:11:54.487Z,34.20
2019-02-15T13:13:29.910Z,34.20
2019-02-15T13:15:07.518Z,34.30
2019-02-15T13:16:42.946Z,34.80
2019-02-15T13:18:18.128Z,34.40
2019-02-15T13:19:53.802Z,35.10
2019-02-15T13:21:28.970Z,34.40
2019-02-15T13:23:04.145Z,34.50
2019-02-15T13:24:39.329Z,34.00
2019-02-15T13:26:14.834Z,34.30
2019-02-15T13:27:49.970Z,33.60
2019-02-15T13:29:25.157Z,34.10
2019-02-15T13:31:00.329Z,34.00
2019-02-15T13:32:35.511Z,34.40
2019-02-15T13:34:10.703Z,33.80
2019-02-15T13:35:45.873Z,34.10
2019-02-15T13:37:21.062Z,34.30
2019-02-15T13:38:56.238Z,34.20
2019-02-15T13:40:31.408Z,34.20
2019-02-15T13:42:06.584Z,34.10
2019-02-15T13:43:41.751Z,34.10
2019-02-15T13:45:16.941Z,34.00
2019-02-15T13:46:52.126Z,34.00
2019-02-15T13:48:27.303Z,33.50
2019-02-15T13:50:02.494Z,34.00
2019-02-15T13:51:37.671Z,34.20
2019-02-15T13:53:12.839Z,34.20
2019-02-15T13:54:48.208Z,34.40
2019-02-15T13:56:26.248Z,34.40
2019-02-15T13:58:02.732Z,34.30
2019-02-15T13:59:42.930Z,34.60
2019-02-15T14:01:19.430Z,34.60
2019-02-15T14:02:55.528Z,34.80
2019-02-15T14:04:30.788Z,34.80
2019-02-15T14:06:06.036Z,34.70
2019-02-15T14:07:41.258Z,34.90
2019-02-15T14:09:16.420Z,34.80
2019-02-15T14:10:51.590Z,34.90
2019-02-15T14:12:26.775Z,34.80
2019-02-15T14:14:02.010Z,34.30
2019-02-15T14:15:37.227Z,34.70
2019-02-15T14:17:12.501Z,34.20
2019-02-15T14:18:47.728Z,34.60
2019-02-15T14:20:22.893Z,34.70
2019-02-15T14:21:58.373Z,34.70
2019-02-15T14:23:33.566Z,34.90
2019-02-15T14:25:11.050Z,34.80
2019-02-15T14:26:46.229Z,35.00
2019-02-15T14:28:21.437Z,35.00
2019-02-15T14:29:57.130Z,35.00
2019-02-15T14:31:32.632Z,35.10
2019-02-15T14:33:07.805Z,35.00
2019-02-15T14:34:43.307Z,35.10
2019-02-15T14:36:18.490Z,35.20
2019-02-15T14:37:54.624Z,35.00
2019-02-15T14:39:29.830Z,35.00
2019-02-15T14:41:05.013Z,35.80
2019-02-15T14:42:40.207Z,35.00
2019-02-15T14:44:15.425Z,35.20
2019-02-15T14:45:50.606Z,35.20
2019-02-15T14:47:25.784Z,35.30
2019-02-15T14:49:00.984Z,35.40
2019-02-15T14:50:37.139Z,35.40
2019-02-15T14:52:12.308Z,35.30
2019-02-15T14:53:47.504Z,35.40
2019-02-15T14:55:22.685Z,35.40
2019-02-15T14:56:57.857Z,35.50
2019-02-15T14:58:33.025Z,35.60
2019-02-15T15:00:15.822Z,35.70
2019-02-15T15:01:53.989Z,35.60
2019-02-15T15:03:29.155Z,35.70
2019-02-15T15:05:05.342Z,36.40
2019-02-15T15:06:40.529Z,35.30
2019-02-15T15:08:15.698Z,35.90
2019-02-15T15:09:50.892Z,35.90
2019-02-15T15:11:26.159Z,36.00
2019-02-15T15:13:01.336Z,36.10
2019-02-15T15:14:36.515Z,36.10
2019-02-15T15:16:11.685Z,36.30
2019-02-15T15:17:46.858Z,36.40
2019-02-15T15:19:22.041Z,36.70
2019-02-15T15:20:57.835Z,36.80
2019-02-15T15:22:33.014Z,37.00
2019-02-15T15:24:08.193Z,37.10
2019-02-15T15:25:43.360Z,37.30
2019-02-15T15:27:18.527Z,37.40
2019-02-15T15:28:53.724Z,37.50
2019-02-15T15:30:28.890Z,37.60
2019-02-15T15:32:04.068Z,37.60
2019-02-15T15:33:39.253Z,37.80
2019-02-15T15:35:14.726Z,37.80
2019-02-15T15:36:50.281Z,37.80
2019-02-15T15:38:25.427Z,37.90
2019-02-15T15:40:00.608Z,37.90
2019-02-15T15:41:35.776Z,38.00
2019-02-15T15:43:10.956Z,38.10
2019-02-15T15:44:46.152Z,38.10
2019-02-15T15:46:21.324Z,38.10
2019-02-15T15:47:56.495Z,38.10
2019-02-15T15:49:31.678Z,38.20
2019-02-15T15:51:06.849Z,38.90
2019-02-15T15:52:42.031Z,38.30
2019-02-15T15:54:17.229Z,38.20
2019-02-15T15:55:52.398Z,38.40
2019-02-15T15:57:28.279Z,38.30
2019-02-15T15:59:03.451Z,38.40
2019-02-15T16:00:39.495Z,38.40
2019-02-15T16:02:14.680Z,38.40
2019-02-15T16:03:49.866Z,38.10
2019-02-15T16:05:25.050Z,38.50
2019-02-15T16:07:00.224Z,38.50
2019-02-15T16:08:35.729Z,38.50
2019-02-15T16:10:15.315Z,38.50
2019-02-15T16:11:50.632Z,38.50
2019-02-15T16:13:25.760Z,38.60
2019-02-15T16:15:00.955Z,38.60
2019-02-15T16:16:37.209Z,38.80
2019-02-15T16:18:12.651Z,38.80
2019-02-15T16:19:49.807Z,38.90
2019-02-15T16:21:24.896Z,38.90
2019-02-15T16:23:00.076Z,39.00
2019-02-15T16:24:35.255Z,39.10
2019-02-15T16:26:10.434Z,39.10
2019-02-15T16:27:45.632Z,39.20
2019-02-15T16:29:20.803Z,39.30
2019-02-15T16:30:55.982Z,39.40
2019-02-15T16:32:31.142Z,39.50
2019-02-15T16:34:06.434Z,39.60
2019-02-15T16:35:41.625Z,39.70
2019-02-15T16:37:16.824Z,39.80
2019-02-15T16:38:51.995Z,39.90
2019-02-15T16:40:27.175Z,40.10
2019-02-15T16:42:02.353Z,40.10
2019-02-15T16:43:37.520Z,40.20
2019-02-15T16:45:14.938Z,40.30
2019-02-15T16:46:50.083Z,40.50
2019-02-15T16:48:25.257Z,40.60
2019-02-15T16:50:00.438Z,40.70
2019-02-15T16:51:35.612Z,40.80
2019-02-15T16:53:10.821Z,40.90
2019-02-15T16:54:46.258Z,40.90
2019-02-15T16:56:21.428Z,41.10
2019-02-15T16:57:56.610Z,41.30
2019-02-15T16:59:31.792Z,41.40
2019-02-15T17:01:06.974Z,41.50
2019-02-15T17:02:42.155Z,41.40
2019-02-15T17:04:17.325Z,41.80
2019-02-15T17:05:52.794Z,41.90
2019-02-15T17:07:27.963Z,42.10
2019-02-15T17:09:05.116Z,42.20
2019-02-15T17:10:41.859Z,42.20
2019-02-15T17:12:17.031Z,42.40
2019-02-15T17:13:52.208Z,42.50
2019-02-15T17:15:27.402Z,42.60
2019-02-15T17:17:02.589Z,42.90
2019-02-15T17:18:38.126Z,42.90
2019-02-15T17:20:13.312Z,43.00
2019-02-15T17:21:48.494Z,43.20
2019-02-15T17:23:23.679Z,43.30
2019-02-15T17:24:59.982Z,43.30
2019-02-15T17:26:35.153Z,43.40
2019-02-15T17:28:11.032Z,43.50
2019-02-15T17:29:46.289Z,43.60
2019-02-15T17:31:21.472Z,43.80
2019-02-15T17:32:56.647Z,43.80
2019-02-15T17:34:31.859Z,44.20
2019-02-15T17:36:07.023Z,44.20
2019-02-15T17:37:42.202Z,44.30
2019-02-15T17:39:17.382Z,44.40
2019-02-15T17:40:52.562Z,44.50
2019-02-15T17:42:27.742Z,44.50
2019-02-15T17:44:02.911Z,44.70
2019-02-15T17:45:39.062Z,44.70
2019-02-15T17:47:14.231Z,44.80
2019-02-15T17:48:49.434Z,44.90
2019-02-15T17:50:24.925Z,45.00
2019-02-15T17:52:00.253Z,45.60
2019-02-15T17:53:35.691Z,45.40
2019-02-15T17:55:11.217Z,45.50
2019-02-15T17:56:46.402Z,45.60
2019-02-15T17:58:21.575Z,45.70
2019-02-15T17:59:56.746Z,45.80
2019-02-15T18:01:32.910Z,46.00
2019-02-15T18:03:08.094Z,46.20
2019-02-15T18:04:43.274Z,46.40
2019-02-15T18:06:18.448Z,46.50
2019-02-15T18:07:53.909Z,46.60
2019-02-15T18:09:29.090Z,46.70
2019-02-15T18:11:04.290Z,46.70
2019-02-15T18:12:39.481Z,47.10
2019-02-15T18:14:14.669Z,46.90
2019-02-15T18:15:49.883Z,46.90
2019-02-15T18:17:25.073Z,47.00
2019-02-15T18:19:00.258Z,47.10
2019-02-15T18:20:35.445Z,47.30
2019-02-15T18:22:11.717Z,47.40
2019-02-15T18:23:47.057Z,47.40
2019-02-15T18:25:22.275Z,47.40
2019-02-15T18:26:57.463Z,47.60
2019-02-15T18:28:32.667Z,47.70
2019-02-15T18:30:14.307Z,47.70
2019-02-15T18:31:49.547Z,47.80
2019-02-15T18:33:24.748Z,48.00
2019-02-15T18:34:59.994Z,48.00
2019-02-15T18:36:35.212Z,48.20
2019-02-15T18:38:10.441Z,48.30
2019-02-15T18:39:45.648Z,48.50
2019-02-15T18:41:20.863Z,48.50
2019-02-15T18:42:56.069Z,48.60
2019-02-15T18:44:32.374Z,48.60
2019-02-15T18:46:07.585Z,48.50
2019-02-15T18:47:43.006Z,48.70
2019-02-15T18:49:19.654Z,48.80
2019-02-15T18:50:55.026Z,48.90
2019-02-15T18:52:30.224Z,49.00
2019-02-15T18:54:05.460Z,49.00
2019-02-15T18:55:40.665Z,49.00
2019-02-15T18:57:15.904Z,49.10
2019-02-15T18:58:51.374Z,49.30
2019-02-15T19:00:26.557Z,49.40
2019-02-15T19:02:02.475Z,49.40
2019-02-15T19:03:37.932Z,49.10
2019-02-15T19:05:15.323Z,49.70
2019-02-15T19:06:50.530Z,49.80
2019-02-15T19:08:25.720Z,49.90
2019-02-15T19:10:01.183Z,50.00
2019-02-15T19:11:36.404Z,50.10
2019-02-15T19:13:11.607Z,50.10
2019-02-15T19:14:46.823Z,50.10
2019-02-15T19:16:22.050Z,50.30
2019-02-15T19:17:57.258Z,50.30
2019-02-15T19:19:33.115Z,50.60
2019-02-15T19:21:08.336Z,50.30
2019-02-15T19:22:43.855Z,50.40
2019-02-15T19:24:19.065Z,50.50
2019-02-15T19:25:54.249Z,50.60
2019-02-15T19:27:29.429Z,50.50
2019-02-15T19:29:04.630Z,50.50
2019-02-15T19:30:40.014Z,50.50
2019-02-15T19:32:15.209Z,50.70
2019-02-15T19:33:50.423Z,50.70
2019-02-15T19:35:25.650Z,51.00
2019-02-15T19:37:00.788Z,51.20
2019-02-15T19:38:36.003Z,51.40
2019-02-15T19:40:15.284Z,52.10
2019-02-15T19:41:50.469Z,51.80
2019-02-15T19:43:25.976Z,52.00
2019-02-15T19:45:01.152Z,52.70
2019-02-15T19:46:36.353Z,52.20
2019-02-15T19:48:11.531Z,52.50
2019-02-15T19:49:46.752Z,52.40
2019-02-15T19:51:21.931Z,52.70
2019-02-15T19:52:57.137Z,52.80
2019-02-15T19:54:33.516Z,53.00
2019-02-15T19:56:08.692Z,52.90
2019-02-15T19:57:43.876Z,52.90
2019-02-15T19:59:19.075Z,53.00
2019-02-15T20:00:54.497Z,53.00
2019-02-15T20:02:29.744Z,53.10
2019-02-15T20:04:04.951Z,53.10
2019-02-15T20:05:40.133Z,52.90
2019-02-15T20:07:15.306Z,52.90
2019-02-15T20:08:50.480Z,52.90
2019-02-15T20:10:25.694Z,53.10
2019-02-15T20:12:00.879Z,53.00
2019-02-15T20:13:36.060Z,52.90
2019-02-15T20:15:15.017Z,52.80
2019-02-15T20:16:50.120Z,52.70
2019-02-15T20:18:25.300Z,52.60
2019-02-15T20:20:00.470Z,52.60
2019-02-15T20:21:35.944Z,52.50
2019-02-15T20:23:11.118Z,52.50
2019-02-15T20:24:46.631Z,52.50
2019-02-15T20:26:21.807Z,52.40
2019-02-15T20:27:57.000Z,52.40
2019-02-15T20:29:32.204Z,52.40
2019-02-15T20:31:07.646Z,52.30
2019-02-15T20:32:42.861Z,52.30
2019-02-15T20:34:18.008Z,52.30
2019-02-15T20:35:53.188Z,52.50
2019-02-15T20:37:28.497Z,52.50